createdAt,value
2023-03-17T00:02:03.934Z,4.88
2023-03-17T00:07:05.751Z,7.10
2023-03-17T00:12:10.777Z,6.57
2023-03-17T00:17:14.048Z,4.60
2023-03-17T00:22:17.844Z,5.25
2023-03-17T00:27:19.155Z,3.50
2023-03-17T00:32:21.264Z,3.57
2023-03-17T00:37:22.991Z,5.00
2023-03-17T00:42:24.228Z,4.90
2023-03-17T00:47:25.584Z,3.90
2023-03-17T00:52:27.414Z,4.90
2023-03-17T00:57:28.728Z,5.23
2023-03-17T01:02:30.996Z,4.15
2023-03-17T01:07:32.316Z,3.83
2023-03-17T01:12:33.860Z,4.05
2023-03-17T01:17:35.120Z,4.60
2023-03-17T01:22:36.435Z,3.90
2023-03-17T01:27:38.198Z,6.65
2023-03-17T01:32:39.545Z,4.80
2023-03-17T01:37:40.875Z,3.75
2023-03-17T01:42:43.774Z,3.65
2023-03-17T01:47:45.510Z,4.07
2023-03-17T01:52:47.988Z,3.25
2023-03-17T01:57:53.366Z,3.63
2023-03-17T02:02:55.506Z,3.70
2023-03-17T02:07:57.111Z,3.15
2023-03-17T02:12:59.633Z,3.20
2023-03-17T02:18:00.912Z,3.50
2023-03-17T02:23:02.381Z,3.40
2023-03-17T02:28:14.820Z,4.43
2023-03-17T02:33:16.200Z,3.60
2023-03-17T02:38:17.515Z,3.50
2023-03-17T02:43:18.866Z,3.40
2023-03-17T02:48:20.258Z,3.43
2023-03-17T02:53:21.546Z,3.10
2023-03-17T02:58:22.992Z,3.28
2023-03-17T03:03:24.261Z,3.17
2023-03-17T03:08:26.144Z,3.28
2023-03-17T03:13:27.454Z,3.17
2023-03-17T03:18:28.842Z,3.35
2023-03-17T03:23:30.209Z,3.80
2023-03-17T03:28:31.877Z,3.40
2023-03-17T03:33:33.631Z,3.20
2023-03-17T03:38:35.256Z,3.23
2023-03-17T03:43:36.831Z,3.17
2023-03-17T03:48:38.153Z,3.20
2023-03-17T03:53:39.492Z,2.80
2023-03-17T03:58:41.765Z,3.03
2023-03-17T04:03:43.037Z,3.20
2023-03-17T04:08:44.534Z,2.97
2023-03-17T04:13:45.836Z,3.80
2023-03-17T04:18:47.290Z,3.00
2023-03-17T04:23:48.750Z,4.32
2023-03-17T04:28:50.082Z,3.40
2023-03-17T04:33:51.392Z,3.20
2023-03-17T04:38:52.901Z,3.08
2023-03-17T04:43:54.183Z,3.23
2023-03-17T04:48:55.896Z,3.35
2023-03-17T04:53:57.240Z,3.77
2023-03-17T04:58:58.527Z,3.22
2023-03-17T05:03:59.807Z,4.80
2023-03-17T05:09:01.101Z,4.73
2023-03-17T05:14:02.448Z,3.20
2023-03-17T05:19:03.825Z,3.27
2023-03-17T05:24:05.254Z,3.17
2023-03-17T05:29:07.054Z,2.90
2023-03-17T05:34:08.351Z,2.63
2023-03-17T05:39:09.588Z,2.88
2023-03-17T05:44:10.873Z,2.97
2023-03-17T05:49:12.714Z,3.47
2023-03-17T05:54:14.022Z,3.95
2023-03-17T05:59:16.740Z,4.00
2023-03-17T06:04:18.026Z,4.30
2023-03-17T06:09:19.586Z,5.40
2023-03-17T06:14:20.981Z,3.78
2023-03-17T06:19:22.266Z,2.90
2023-03-17T06:24:23.623Z,2.50
2023-03-17T06:29:25.429Z,3.03
2023-03-17T06:34:27.406Z,2.63
2023-03-17T06:39:28.848Z,2.90
2023-03-17T06:44:30.121Z,3.25
2023-03-17T06:49:31.975Z,3.20
2023-03-17T06:54:33.387Z,2.80
2023-03-17T06:59:35.357Z,2.70
2023-03-17T07:04:37.968Z,3.10
2023-03-17T07:09:40.005Z,3.78
2023-03-17T07:14:41.605Z,4.40
2023-03-17T07:19:43.566Z,4.05
2023-03-17T07:24:46.928Z,3.40
2023-03-17T07:29:48.185Z,3.55
2023-03-17T07:34:49.986Z,3.22
2023-03-17T07:39:51.968Z,4.90
2023-03-17T07:44:53.290Z,3.70
2023-03-17T07:49:54.834Z,3.63
2023-03-17T07:54:58.106Z,3.28
2023-03-17T07:59:59.636Z,3.60
2023-03-17T08:05:01.862Z,3.93
2023-03-17T08:10:04.195Z,2.97
2023-03-17T08:15:06.575Z,16.07
2023-03-17T08:20:08.314Z,4.28
2023-03-17T08:25:10.150Z,3.00
2023-03-17T08:30:12.722Z,2.60
2023-03-17T08:35:16.016Z,2.33
2023-03-17T08:40:18.360Z,2.28
2023-03-17T08:45:19.782Z,2.87
2023-03-17T08:50:22.218Z,2.10
2023-03-17T08:55:23.552Z,1.60
2023-03-17T09:00:24.841Z,2.63
2023-03-17T09:05:26.597Z,1.42
2023-03-17T09:10:29.110Z,1.60
2023-03-17T09:15:31.447Z,1.90
2023-03-17T09:20:33.853Z,1.63
2023-03-17T09:25:36.217Z,4.00
2023-03-17T09:30:37.672Z,2.53
2023-03-17T09:35:39.884Z,1.90
2023-03-17T09:41:10.582Z,2.13
2023-03-17T09:46:31.558Z,2.90
2023-03-17T09:51:33.682Z,2.20
2023-03-17T09:56:36.482Z,1.83
2023-03-17T10:01:39.722Z,1.70
2023-03-17T10:06:46.615Z,1.90
2023-03-17T10:11:48.891Z,2.50
2023-03-17T10:16:59.280Z,2.65
2023-03-17T10:22:02.618Z,2.55
2023-03-17T10:27:06.366Z,2.00
2023-03-17T10:32:11.078Z,2.78
2023-03-17T10:37:18.179Z,2.28
2023-03-17T10:42:26.727Z,6.80
2023-03-17T10:47:37.926Z,5.20
2023-03-17T10:52:42.126Z,2.42
2023-03-17T10:58:05.872Z,3.97
2023-03-17T11:03:12.200Z,4.10
2023-03-17T11:08:20.041Z,2.28
2023-03-17T11:13:21.837Z,2.72
2023-03-17T11:18:26.905Z,2.37
2023-03-17T11:23:28.170Z,2.20
2023-03-17T11:28:33.030Z,2.05
2023-03-17T11:33:40.170Z,2.20
2023-03-17T11:39:02.196Z,2.95
2023-03-17T11:44:10.446Z,3.05
2023-03-17T11:49:20.298Z,2.00
2023-03-17T11:54:26.208Z,2.00
2023-03-17T11:59:27.702Z,2.47
2023-03-17T12:04:34.915Z,2.10
2023-03-17T12:09:47.548Z,2.73
2023-03-17T12:14:50.045Z,2.53
2023-03-17T12:19:51.299Z,2.30
2023-03-17T12:24:52.539Z,2.00
2023-03-17T12:29:58.372Z,6.05
2023-03-17T12:35:03.019Z,2.45
2023-03-17T12:40:08.571Z,7.70
2023-03-17T12:45:14.925Z,2.00
2023-03-17T12:50:42.523Z,2.17
2023-03-17T12:55:45.775Z,2.10
2023-03-17T13:00:50.522Z,1.80
2023-03-17T13:05:53.748Z,2.88
2023-03-17T13:11:13.861Z,1.80
2023-03-17T13:16:35.989Z,1.87
2023-03-17T13:21:38.907Z,1.73
2023-03-17T13:26:52.461Z,2.00
2023-03-17T13:32:13.259Z,2.10
2023-03-17T13:37:30.204Z,2.20
2023-03-17T13:42:37.699Z,2.10
2023-03-17T13:47:42.177Z,1.90
2023-03-17T13:52:54.397Z,1.70
2023-03-17T13:58:15.905Z,2.10
2023-03-17T14:03:20.264Z,1.65
2023-03-17T14:08:44.672Z,1.90
2023-03-17T14:14:04.891Z,2.30
2023-03-17T14:19:29.586Z,1.60
2023-03-17T14:24:32.400Z,2.30
2023-03-17T14:29:33.898Z,2.13
2023-03-17T14:34:41.904Z,1.90
2023-03-17T14:39:44.214Z,2.28
2023-03-17T14:44:45.476Z,4.90
2023-03-17T14:49:47.627Z,2.92
2023-03-17T14:54:53.485Z,3.45
2023-03-17T14:59:56.306Z,2.37
2023-03-17T15:04:59.000Z,2.90
2023-03-17T15:10:02.158Z,2.65
2023-03-17T15:15:06.181Z,2.23
2023-03-17T15:20:13.366Z,3.47
2023-03-17T15:25:19.847Z,3.05
2023-03-17T15:30:21.489Z,2.70
2023-03-17T15:35:22.806Z,3.00
2023-03-17T15:40:24.271Z,3.38
2023-03-17T15:45:25.924Z,4.07
2023-03-17T15:50:31.297Z,3.23
2023-03-17T15:55:33.374Z,3.22
2023-03-17T16:00:34.833Z,2.92
2023-03-17T16:05:36.486Z,3.30
2023-03-17T16:10:37.797Z,4.32
2023-03-17T16:15:41.014Z,3.83
2023-03-17T16:20:52.178Z,3.50
2023-03-17T16:25:55.422Z,2.92
2023-03-17T16:31:01.388Z,4.30
2023-03-17T16:36:02.877Z,3.80
2023-03-17T16:41:08.684Z,4.80
2023-03-17T16:46:11.626Z,4.15
2023-03-17T16:51:12.938Z,3.57
2023-03-17T16:56:16.605Z,3.90
2023-03-17T17:01:20.148Z,3.60
2023-03-17T17:06:22.688Z,3.30
2023-03-17T17:11:24.029Z,5.37
2023-03-17T17:16:28.143Z,4.20
2023-03-17T17:21:29.753Z,4.80
2023-03-17T17:26:31.023Z,5.37
2023-03-17T17:31:32.334Z,4.40
2023-03-17T17:36:33.809Z,5.20
2023-03-17T17:41:35.248Z,5.53
2023-03-17T17:46:37.462Z,6.00
2023-03-17T17:51:38.961Z,9.15
2023-03-17T17:56:46.621Z,10.43
2023-03-17T18:01:47.987Z,6.63
2023-03-17T18:06:49.294Z,6.57
2023-03-17T18:11:50.797Z,5.50
2023-03-17T18:16:52.164Z,7.97
2023-03-17T18:21:53.481Z,5.07
2023-03-17T18:26:54.764Z,4.70
2023-03-17T18:31:56.085Z,8.63
2023-03-17T18:36:57.939Z,9.07
2023-03-17T18:41:59.291Z,9.45
2023-03-17T18:47:00.618Z,7.05
2023-03-17T18:52:01.948Z,7.70
2023-03-17T18:57:03.417Z,6.95
2023-03-17T19:02:04.701Z,8.10
2023-03-17T19:07:06.166Z,7.45
2023-03-17T19:12:07.781Z,7.22
2023-03-17T19:17:09.137Z,8.10
2023-03-17T19:22:11.028Z,6.68
2023-03-17T19:27:12.350Z,5.70
2023-03-17T19:32:13.813Z,3.80
2023-03-17T19:37:15.605Z,4.35
2023-03-17T19:42:17.418Z,6.57
2023-03-17T19:47:18.747Z,10.10
2023-03-17T19:52:20.154Z,9.25
2023-03-17T19:57:21.998Z,8.10
2023-03-17T20:02:23.370Z,7.50
2023-03-17T20:07:24.697Z,7.73
2023-03-17T20:12:26.429Z,7.95
2023-03-17T20:17:27.718Z,9.77
2023-03-17T20:22:29.026Z,8.87
2023-03-17T20:27:32.021Z,8.50
2023-03-17T20:32:34.384Z,9.23
2023-03-17T20:37:35.787Z,28.58
2023-03-17T20:42:37.424Z,47.25
2023-03-17T20:47:38.868Z,30.57
2023-03-17T20:52:41.925Z,17.98
2023-03-17T20:57:45.360Z,8.60
2023-03-17T21:02:49.967Z,9.18
2023-03-17T21:07:51.628Z,10.45
2023-03-17T21:12:52.999Z,11.07
2023-03-17T21:17:54.791Z,9.98
2023-03-17T21:22:56.544Z,7.20
2023-03-17T21:27:57.856Z,7.07
2023-03-17T21:33:00.882Z,8.18
2023-03-17T21:38:03.857Z,7.00
2023-03-17T21:43:05.637Z,7.72
2023-03-17T21:48:06.970Z,7.27
2023-03-17T21:53:09.142Z,7.97
2023-03-17T21:58:10.433Z,8.60
2023-03-17T22:03:11.809Z,8.40
2023-03-17T22:08:13.215Z,8.52
2023-03-17T22:13:14.517Z,8.33
2023-03-17T22:18:16.002Z,7.88
2023-03-17T22:23:18.198Z,7.45
2023-03-17T22:28:19.504Z,6.80
2023-03-17T22:33:20.850Z,6.60
2023-03-17T22:38:24.832Z,6.37
2023-03-17T22:43:27.522Z,8.68
2023-03-17T22:48:28.834Z,7.85
2023-03-17T22:53:31.495Z,8.80
2023-03-17T22:58:32.864Z,6.88
2023-03-17T23:03:34.324Z,6.57
2023-03-17T23:08:36.646Z,7.00
2023-03-17T23:13:39.363Z,7.10
2023-03-17T23:18:40.938Z,7.47
2023-03-17T23:23:42.185Z,7.72
2023-03-17T23:28:44.859Z,8.10
2023-03-17T23:33:46.855Z,7.97
2023-03-17T23:38:48.685Z,7.47
2023-03-17T23:43:50.972Z,7.43
2023-03-17T23:48:52.998Z,7.20
2023-03-17T23:53:54.325Z,5.83
2023-03-17T23:58:55.857Z,5.75
